Ardmore, Oklahoma
Current Conditions -  °F | °C
As of 4:35 PM on Sunday 23 Nov 2014 (Local Time) from K1F0 Reporting Station
Clear Clear  
Wind Chill: 63°   Ceiling: Unl
Heat Index: 63°   Visibility: 10mi
Dew Point: 39°   Wind: 8mph
Humidity: 42%   Direction: 300°WNW
Pressure: 29.43"   Gusts: 24mph
Location:  34.17°N, 97.13°W
Report Text: K1F0 232235Z AUTO 30007G21KT 280V340 10SM CLR 17/04 A2943 RMK AO2
Loading
Personal Weather Stations






























Interactive Weather Map New forecast layout! Learn more

10-Day Weather Forecast

Advertisements
Track Severe Weather on mobile